Racecast

Amelia Easterbrook

El Camino (Sacramento) (CA) · 12 · GELCA D3SJS D4 · Compare head to head

what a rating means
100 is the average runner in the athlete's pool; a rating of 133 means 33% faster than that average runner. Ratings are distance-normalised and course-adjusted, so a hard course and a fast track land on one number. Each pool (high school boys, college women, middle school…) has its own average, and the HS-equivalent view puts every pool on the high-school scale.
Athlete rating 98.9 2013 XC season
Best race 111.7 TF
Races 63
Seasons 4 2011 — 2014

RankedNation #74740·CA #9858·CA D3 #3646·SJS #995·SJS D4 #163·GEL #38·Team #16 ?

Speed rating — all races

Cross Country

XC speed rating

2013 XC 97.1

El Camino (Sacramento) (CA) · Grade 12

Date Meet Event Result Place Rating Difficulty PR/SR Flags
2013-10-31 William Jessup University 4828m 26:39 35th · 4th on team 92.1 +0.8% CSR
2013-10-25 Mt. San Antonio College 4715m 26:17 126th · 5th on team 95.3 +5.6% SR CSR
2013-10-10 Cordova High School 4506m 22:48 26th · 4th on team 97.0 -1.8% ★PR ★CR SR CSR
2013-10-05 Del Oro HS 4000m 19:36 87th · 4th on team 102.3 +1.2% ★PR ★CR SR CSR RSR
2013-09-18 Rio Americano High School 4828m 24:41 27th · 3rd on team 98.6 +0.2% ★PR ★CR SR CSR RSR

2012 XC 92.7

El Camino (Sacramento) (CA) · Grade 11

Date Meet Event Result Place Rating Difficulty PR/SR Flags
2012-11-03 Calaveras County Fairgrounds 4828m 26:02 122nd · 5th on team 98.3 +4.5% CSR
2012-10-26 William Jessup University 4828m 25:46 31st · 5th on team 95.2 +0.8% PR ★CR SR CSR
2012-10-13 Willow Hills Reservoir Course 5000m 26:59.6 133rd · 3rd on team 96.2 +2.5% ★CR SR CSR
2012-10-06 Del Oro HS 4000m 20:27 16th · 5th on team 98.3 +1.2% SR CSR RSR
2012-10-03 Cordova High School 4828m 25:51 30th · 5th on team 93.9 -0.4% ★CR SR CSR RSR
2012-09-22 Muller Vineyards 5000m 30:01 15th · 3rd on team 90.8 +6.0% ★CR SR CSR
2012-09-15 Willow Hills Reservoir Course 5000m 31:08 109th · 4th on team 83.7 +2.5% CR SR CSR
2012-09-12 Rio Americano High School 4828m 28:24 34th · 6th on team 86.0 +0.2% CR SR CSR
2012-09-06 William Jessup University 3218m 16:26 26th · 3rd on team 91.7 -3.3% ★PR ★CR SR CSR RSR

2011 XC 95.0

El Camino (Sacramento) (CA) · Grade 10

Date Meet Event Result Place Rating Difficulty PR/SR Flags
2011-11-05 Calaveras County Fairgrounds 4828m 25:47 136th · 6th on team 98.4 +4.5% PR ★CR SR CSR
2011-10-21 Mt. San Antonio College 4715m 25:24 119th · 4th on team 99.3 +5.6% ★PR ★CR SR CSR
2011-10-08 Granite Park 5000m 26:36 73rd · 6th on team 93.8 -1.7% ★CR CSR
2011-10-05 William Jessup University 4828m 27:05 32nd · 6th on team 89.7 +0.8% PR CR SR CSR
2011-10-01 Del Oro HS 4000m 20:25 51st · 5th on team 98.5 +1.2% PR CR SR CSR
2011-09-24 Stanford University Golf Course 5000m 24:57 181st · 5th on team 99.6 -1.9% ★PR ★CR R SR CSR RSR
2011-09-14 Rio Americano High School 4345m 24:06 30th · 6th on team 92.3 +1.7% ★PR ★CR R SR CSR RSR
2011-09-10 Rosemont HS 3540m 19:36.3 39th · 2nd on team 88.2 -1.0% ★PR ★CR R SR CSR RSR

Track & Field

TF speed rating

2014 TF 104.1

El Camino (Sacramento) (CA) · Grade 12

Date Meet Event Result Place Rating Difficulty PR/SR Flags
2014-05-15 CAL League Championships 1600m 7:12.12 12th · 2nd on team 95.1 -0.6%
2014-05-15 CAL League Championships 800m 2:59.97 10th · 1st on team 101.1 -0.6%
2014-05-09 Gold Rush Elite Invitational 800m 2:58.01 7th · 2nd on team 103.3 +0.7%
2014-05-09 Gold Rush Elite Invitational 1600m 6:28.46 5th · 1st on team 106.7 +0.7%
2014-04-30 CAL Center Meet # 3 400m 1:10.29 11th · 2nd on team +0.1%
2014-04-30 CAL Center Meet # 3 800m 3:04.01 17th · 3rd on team 99.7 +0.1%
2014-04-26 Glenn Poole Invitational 1600m 6:36.39 25th · 2nd on team 103.7 0.0%
2014-04-26 Glenn Poole Invitational 800m 2:48.16 25th · 2nd on team 108.6 0.0% ★PR SR RSR
2014-04-24 CAL Center Meet # 1 make up 800m 3:00.72 19th · 1st on team 102.2 +1.2%
2014-04-24 CAL Center Meet # 1 make up 400m 1:09.82 9th · 2nd on team +1.2% ★PR SR
2014-04-11 DelOro Invite 800m 2:50.14 35th · 1st on team 107.5 +0.1% PR SR
2014-04-11 DelOro Invite 1mile 6:29.7 31st · 1st on team 106.7 +0.1% ★PR SR
2014-03-15 Folsom Depth Charge 1600m 6:22.96 12th · 1st on team 108.5 +0.6% SR RSR
2014-03-15 Folsom Depth Charge 800m 2:53.57 13th · 1st on team 106.0 +0.6% SR

2013 TF 104.5

El Camino (Sacramento) (CA) · Grade 11

Date Meet Event Result Place Rating Difficulty PR/SR Flags
2013-05-10 CAL League Championship Finals 1600m 6:16.53 9th · 1st on team 110.4 +1.2%
2013-05-10 CAL League Championship Finals 800m 2:55.18 18th · 5th on team 105.2 +1.2%
2013-05-10 CAL League Championship Finals 800m 2:53.12 17th · 4th on team 106.5 +1.2%
2013-05-08 CAL League Championships ( trials ) 800m 2:53.12 11th · 3rd on team 105.7 +1.2% PR SR
2013-05-03 Gold Rush Elite Invitational 1600m 6:25.2 5th · 1st on team 107.8 +0.7%
2013-04-24 CAL Center meet # 3 1600m 6:31.25 16th · 2nd on team 106.4 +1.2%
2013-04-24 CAL Center meet # 3 800m 3:01.81 14th · 2nd on team 101.5 +1.2%
2013-04-20 River Valley Falcon Invitational 800m 3:00.72 11th · 3rd on team 102.3 +1.1%
2013-04-20 River Valley Falcon Invitational 1600m 6:13.18 4th · 2nd on team 111.7 +1.1% ★PR ★R SR RSR
2013-04-13 Glenn Poole Invitational 1600m 6:19.34 21st · 2nd on team 108.4 0.0% PR R SR RSR
2013-04-06 Thunder Invitational 800m 2:54.2 31st · 2nd on team 104.7 +0.1% PR SR
2013-04-03 CAL Center Meet # 2 1600m 6:51.59 18th · 2nd on team 99.8 +0.1%
2013-04-03 CAL Center Meet # 2 800m 3:07.39 22nd · 4th on team 97.2 +0.1%
2013-03-20 CAL Center Meet # 1 1600m 6:27.57 11th · 2nd on team 105.4 -0.6% PR R SR RSR
2013-03-20 CAL Center Meet # 1 800m 3:07.02 18th · 4th on team 97.2 -0.6%
2013-03-09 King/Gilbert Invitational 1600m 6:32.19 27th · 2nd on team 104.6 -0.2% PR R SR RSR
2013-03-09 King/Gilbert Invitational 800m 3:00.05 20th · 2nd on team 101.0 -0.2% PR SR

2012 TF 95.4

El Camino (Sacramento) (CA) · Grade 10

Date Meet Event Result Place Rating Difficulty PR/SR Flags
2012-04-14 River Valley Falcon Invitational 800m 3:13.28 16th · 4th on team 94.8 +1.1%
2012-04-14 River Valley Falcon Invitational 1600m 6:47.73 19th · 3rd on team 101.2 +1.1% PR R SR RSR
2012-04-11 Capital Athletic League Meet #2 800m 3:18.02 25th · 4th on team 93.3 +1.2%
2012-04-11 Capital Athletic League Meet #2 1600m 7:01.91 28th · 3rd on team 98.4 +1.2% PR SR RSR
2012-03-31 Lancer invite 800m 3:18.82 24th · 3rd on team 91.6 -0.6%
2012-03-31 Lancer invite 1600m 7:06.9 34th · 3rd on team 95.8 -0.6%
2012-03-28 Capital Athletic League Meet #1 1600m 7:03.12 27th · 3rd on team 97.1 +0.1% PR SR RSR
2012-03-28 Capital Athletic League Meet #1 800m 3:12.64 27th · 4th on team 94.8 +0.1%
2012-03-17 Cal Invitational 800m 3:17.68 36th · 3rd on team 92.7 +0.1%
2012-03-10 Bob King - Don Gilbert Invitational 800m 3:12.12 19th · 2nd on team 94.3 -0.2% PR SR RSR